createdAt,value
2023-02-15T00:00:45.557Z,18.08
2023-02-15T00:02:47.028Z,17.10
2023-02-15T00:04:48.573Z,15.45
2023-02-15T00:06:50.657Z,15.73
2023-02-15T00:08:52.418Z,16.02
2023-02-15T00:10:54.245Z,15.65
2023-02-15T00:12:55.673Z,16.48
2023-02-15T00:14:57.142Z,16.08
2023-02-15T00:17:00.742Z,15.23
2023-02-15T00:19:02.891Z,15.57
2023-02-15T00:21:09.659Z,14.13
2023-02-15T00:23:11.101Z,15.00
2023-02-15T00:25:12.573Z,14.70
2023-02-15T00:27:14.065Z,15.23
2023-02-15T00:29:17.534Z,14.55
2023-02-15T00:31:19.381Z,14.43
2023-02-15T00:33:20.860Z,15.30
2023-02-15T00:35:22.550Z,14.95
2023-02-15T00:37:24.020Z,15.15
2023-02-15T00:39:25.595Z,15.60
2023-02-15T00:41:27.116Z,15.60
2023-02-15T00:43:30.833Z,17.80
2023-02-15T00:45:32.285Z,18.30
2023-02-15T00:47:33.760Z,17.13
2023-02-15T00:49:35.233Z,16.52
2023-02-15T00:51:36.877Z,15.00
2023-02-15T00:53:38.349Z,15.88
2023-02-15T00:55:41.250Z,15.10
2023-02-15T00:57:42.686Z,17.02
2023-02-15T00:59:44.150Z,16.42
2023-02-15T01:01:45.696Z,15.05
2023-02-15T01:03:47.690Z,19.30
2023-02-15T01:05:50.326Z,15.30
2023-02-15T01:07:54.057Z,13.68
2023-02-15T01:09:55.897Z,15.43
2023-02-15T01:11:57.382Z,12.98
2023-02-15T01:13:59.526Z,13.25
2023-02-15T01:16:01.770Z,16.13
2023-02-15T01:18:03.655Z,15.80
2023-02-15T01:20:06.131Z,11.52
2023-02-15T01:22:07.601Z,12.95
2023-02-15T01:24:14.351Z,15.27
2023-02-15T01:26:16.385Z,11.88
2023-02-15T01:28:17.895Z,11.70
2023-02-15T01:30:19.585Z,13.05
2023-02-15T01:32:21.118Z,11.35
2023-02-15T01:34:22.585Z,14.25
2023-02-15T01:36:24.148Z,10.52
2023-02-15T01:38:25.589Z,12.68
2023-02-15T01:40:27.081Z,11.82
2023-02-15T01:42:29.885Z,11.93
2023-02-15T01:44:51.723Z,13.63
2023-02-15T01:46:54.676Z,11.95
2023-02-15T01:49:26.128Z,13.75
2023-02-15T01:51:31.718Z,12.13
2023-02-15T01:53:48.577Z,11.23
2023-02-15T01:56:31.484Z,12.43
2023-02-15T01:58:35.886Z,12.32
2023-02-15T02:00:37.508Z,12.10
2023-02-15T02:02:39.727Z,13.10
2023-02-15T02:04:44.664Z,12.88
2023-02-15T02:06:48.934Z,14.50
2023-02-15T02:08:50.750Z,11.82
2023-02-15T02:10:52.188Z,13.32
2023-02-15T02:12:58.821Z,11.98
2023-02-15T02:15:00.413Z,13.07
2023-02-15T02:17:07.548Z,12.75
2023-02-15T02:19:52.144Z,13.00
2023-02-15T02:22:16.455Z,12.57
2023-02-15T02:24:33.664Z,13.60
2023-02-15T02:26:47.226Z,12.13
2023-02-15T02:29:10.017Z,12.13
2023-02-15T02:31:39.471Z,12.55
2023-02-15T02:33:49.578Z,12.25
2023-02-15T02:36:12.761Z,12.23
2023-02-15T02:38:36.732Z,11.30
2023-02-15T02:40:51.673Z,11.48
2023-02-15T02:43:15.684Z,11.80
2023-02-15T02:45:26.388Z,12.75
2023-02-15T02:47:34.122Z,11.52
2023-02-15T02:49:38.541Z,11.50
2023-02-15T02:51:40.007Z,11.73
2023-02-15T02:53:41.867Z,20.80
2023-02-15T02:55:50.499Z,14.10
2023-02-15T02:57:56.848Z,11.70
2023-02-15T03:00:00.581Z,11.77
2023-02-15T03:02:41.613Z,11.25
2023-02-15T03:04:58.882Z,11.57
2023-02-15T03:07:08.500Z,14.05
2023-02-15T03:09:19.119Z,12.90
2023-02-15T03:11:20.569Z,12.45
2023-02-15T03:13:23.152Z,13.68
2023-02-15T03:15:50.538Z,15.15
2023-02-15T03:17:58.572Z,11.10
2023-02-15T03:20:05.396Z,12.65
2023-02-15T03:22:20.356Z,11.70
2023-02-15T03:24:27.433Z,12.45
2023-02-15T03:26:31.358Z,12.65
2023-02-15T03:28:39.503Z,11.55
2023-02-15T03:30:45.621Z,12.00
2023-02-15T03:32:49.803Z,21.02
2023-02-15T03:34:51.470Z,14.52
2023-02-15T03:37:00.703Z,11.32
2023-02-15T03:39:13.280Z,11.50
2023-02-15T03:41:17.145Z,10.85
2023-02-15T03:43:54.021Z,13.85
2023-02-15T03:46:01.533Z,11.25
2023-02-15T03:48:06.295Z,10.50
2023-02-15T03:50:35.216Z,10.10
2023-02-15T03:52:37.875Z,10.00
2023-02-15T03:54:43.665Z,10.73
2023-02-15T03:57:05.334Z,11.88
2023-02-15T03:59:25.468Z,11.23
2023-02-15T04:01:56.565Z,10.75
2023-02-15T04:04:08.476Z,10.13
2023-02-15T04:06:09.942Z,11.63
2023-02-15T04:08:12.637Z,11.02
2023-02-15T04:10:32.903Z,11.18
2023-02-15T04:12:34.404Z,12.18
2023-02-15T04:14:54.646Z,10.98
2023-02-15T04:16:56.165Z,9.45
2023-02-15T04:19:16.218Z,11.40
2023-02-15T04:21:36.549Z,11.13
2023-02-15T04:23:56.248Z,10.88
2023-02-15T04:25:57.685Z,10.23
2023-02-15T04:27:59.132Z,12.85
2023-02-15T04:30:00.657Z,9.52
2023-02-15T04:32:03.285Z,10.27
2023-02-15T04:34:04.777Z,10.75
2023-02-15T04:36:06.359Z,9.98
2023-02-15T04:38:07.829Z,11.43
2023-02-15T04:40:11.655Z,9.95
2023-02-15T04:42:13.133Z,10.73
2023-02-15T04:44:14.673Z,10.23
2023-02-15T04:46:16.177Z,11.18
2023-02-15T04:48:18.674Z,10.05
2023-02-15T04:50:20.178Z,10.38
2023-02-15T04:52:21.975Z,9.98
2023-02-15T04:54:23.520Z,10.85
2023-02-15T04:56:25.041Z,11.13
2023-02-15T04:58:26.485Z,9.55
2023-02-15T05:00:28.468Z,10.15
2023-02-15T05:02:29.943Z,11.82
2023-02-15T05:04:31.661Z,11.32
2023-02-15T05:06:33.148Z,14.63
2023-02-15T05:08:34.615Z,13.13
2023-02-15T05:10:36.044Z,11.52
2023-02-15T05:12:37.557Z,9.85
2023-02-15T05:14:38.976Z,11.40
2023-02-15T05:16:40.509Z,9.90
2023-02-15T05:18:42.102Z,8.70
2023-02-15T05:20:43.646Z,11.45
2023-02-15T05:22:45.166Z,9.32
2023-02-15T05:25:05.316Z,9.60
2023-02-15T05:27:25.114Z,8.65
2023-02-15T05:29:26.557Z,9.25
2023-02-15T05:31:28.609Z,9.80
2023-02-15T05:33:30.354Z,10.65
2023-02-15T05:35:33.024Z,10.25
2023-02-15T05:37:34.817Z,9.77
2023-02-15T05:39:36.270Z,10.68
2023-02-15T05:41:37.745Z,9.73
2023-02-15T05:43:39.830Z,10.35
2023-02-15T05:45:41.337Z,12.30
2023-02-15T05:47:43.371Z,9.95
2023-02-15T05:49:44.793Z,11.75
2023-02-15T05:51:46.326Z,9.70
2023-02-15T05:53:47.789Z,9.23
2023-02-15T05:55:49.252Z,10.57
2023-02-15T05:57:50.729Z,9.52
2023-02-15T05:59:52.172Z,9.48
2023-02-15T06:01:53.620Z,9.52
2023-02-15T06:03:56.726Z,10.35
2023-02-15T06:05:58.208Z,9.50
2023-02-15T06:07:59.794Z,9.75
2023-02-15T06:10:01.242Z,8.82
2023-02-15T06:12:03.160Z,9.00
2023-02-15T06:14:04.743Z,10.10
2023-02-15T06:16:07.070Z,9.15
2023-02-15T06:18:08.823Z,9.05
2023-02-15T06:20:10.896Z,9.25
2023-02-15T06:22:14.900Z,8.65
2023-02-15T06:24:16.654Z,8.95
2023-02-15T06:26:18.076Z,12.35
2023-02-15T06:28:19.583Z,9.02
2023-02-15T06:30:21.395Z,8.20
2023-02-15T06:32:22.959Z,9.52
2023-02-15T06:34:24.529Z,9.35
2023-02-15T06:36:26.020Z,10.48
2023-02-15T06:38:27.842Z,8.40
2023-02-15T06:40:29.270Z,8.90
2023-02-15T06:42:31.295Z,8.65
2023-02-15T06:44:32.762Z,9.27
2023-02-15T06:46:34.386Z,9.05
2023-02-15T06:48:36.329Z,8.68
2023-02-15T06:50:38.625Z,8.57
2023-02-15T06:52:40.068Z,9.00
2023-02-15T06:54:41.615Z,9.13
2023-02-15T06:56:44.501Z,8.90
2023-02-15T06:58:50.430Z,9.75
2023-02-15T07:00:52.723Z,9.52
2023-02-15T07:02:56.643Z,8.75
2023-02-15T07:04:58.228Z,8.57
2023-02-15T07:06:59.697Z,8.55
2023-02-15T07:09:01.222Z,9.02
2023-02-15T07:11:23.070Z,9.60
2023-02-15T07:13:24.511Z,8.35
2023-02-15T07:15:26.030Z,8.27
2023-02-15T07:17:36.941Z,8.65
2023-02-15T07:19:38.574Z,8.48
2023-02-15T07:21:40.065Z,8.52
2023-02-15T07:23:41.600Z,8.18
2023-02-15T07:25:43.067Z,8.32
2023-02-15T07:27:45.750Z,9.52
2023-02-15T07:29:47.361Z,8.93
2023-02-15T07:31:48.825Z,8.20
2023-02-15T07:33:50.259Z,8.15
2023-02-15T07:35:58.859Z,8.15
2023-02-15T07:38:01.002Z,7.97
2023-02-15T07:40:02.501Z,8.52
2023-02-15T07:42:04.023Z,7.72
2023-02-15T07:44:05.693Z,7.63
2023-02-15T07:46:13.290Z,8.95
2023-02-15T07:48:14.769Z,9.35
2023-02-15T07:50:16.325Z,9.13
2023-02-15T07:52:17.777Z,8.57
2023-02-15T07:54:19.320Z,9.60
2023-02-15T07:56:20.795Z,9.70
2023-02-15T07:58:22.239Z,10.50
2023-02-15T08:00:26.755Z,10.60
2023-02-15T08:02:29.893Z,9.68
2023-02-15T08:04:32.131Z,9.45
2023-02-15T08:06:36.144Z,9.77
2023-02-15T08:08:38.636Z,9.45
2023-02-15T08:10:58.644Z,10.07
2023-02-15T08:13:00.158Z,9.65
2023-02-15T08:15:01.613Z,9.32
2023-02-15T08:17:05.890Z,10.23
2023-02-15T08:19:08.811Z,10.35
2023-02-15T08:21:10.272Z,10.57
2023-02-15T08:23:11.720Z,10.27
2023-02-15T08:25:13.321Z,10.38
2023-02-15T08:27:14.780Z,10.95
2023-02-15T08:29:19.326Z,11.20
2023-02-15T08:31:21.859Z,11.48
2023-02-15T08:33:23.472Z,11.10
2023-02-15T08:35:24.948Z,10.85
2023-02-15T08:37:26.984Z,11.02
2023-02-15T08:39:28.798Z,12.00
2023-02-15T08:41:38.406Z,11.80
2023-02-15T08:43:40.103Z,11.48
2023-02-15T08:45:42.443Z,12.25
2023-02-15T08:47:43.935Z,12.27
2023-02-15T08:49:45.386Z,12.13
2023-02-15T08:51:48.084Z,12.65
2023-02-15T08:53:52.102Z,13.20
2023-02-15T08:55:58.141Z,13.38
2023-02-15T08:57:59.611Z,12.75
2023-02-15T09:00:01.102Z,12.90
2023-02-15T09:02:03.949Z,13.70
2023-02-15T09:04:09.582Z,13.43
2023-02-15T09:06:11.934Z,12.93
2023-02-15T09:08:13.421Z,14.70
2023-02-15T09:10:14.893Z,14.80
2023-02-15T09:12:16.330Z,15.15
2023-02-15T09:14:24.428Z,16.00
2023-02-15T09:16:28.988Z,15.80
2023-02-15T09:18:32.739Z,15.23
2023-02-15T09:20:37.330Z,15.90
2023-02-15T09:22:38.808Z,15.18
2023-02-15T09:24:40.345Z,17.05
2023-02-15T09:26:44.589Z,16.85
2023-02-15T09:28:47.006Z,17.90
2023-02-15T09:30:48.595Z,18.42
2023-02-15T09:32:50.189Z,18.13
2023-02-15T09:34:51.639Z,17.50
2023-02-15T09:36:53.148Z,18.25
2023-02-15T09:38:59.336Z,19.02
2023-02-15T09:41:28.391Z,17.98
2023-02-15T09:43:59.241Z,18.40
2023-02-15T09:46:23.583Z,17.90
2023-02-15T09:48:46.190Z,18.60
2023-02-15T09:51:32.834Z,19.15
2023-02-15T09:53:36.900Z,18.52
2023-02-15T09:55:58.165Z,18.20
2023-02-15T09:58:13.978Z,18.50
2023-02-15T10:00:53.619Z,19.95
2023-02-15T10:03:20.777Z,20.00
2023-02-15T10:05:40.499Z,21.48
2023-02-15T10:07:41.904Z,20.63
2023-02-15T10:09:47.936Z,22.33
2023-02-15T10:12:04.734Z,22.00
2023-02-15T10:14:45.366Z,22.13
2023-02-15T10:17:22.631Z,25.55
2023-02-15T10:19:45.547Z,25.20
2023-02-15T10:22:05.811Z,26.70
2023-02-15T10:24:31.114Z,28.45
2023-02-15T10:26:43.625Z,28.88
2023-02-15T10:28:47.987Z,29.58
2023-02-15T10:30:52.609Z,30.75
2023-02-15T10:33:11.693Z,29.52
2023-02-15T10:35:32.012Z,33.53
2023-02-15T10:37:54.503Z,31.98
2023-02-15T10:40:08.434Z,30.85
2023-02-15T10:42:27.474Z,30.92
2023-02-15T10:45:05.317Z,28.48
2023-02-15T10:47:22.897Z,27.38
2023-02-15T10:49:42.459Z,28.30
2023-02-15T10:51:50.098Z,25.33
2023-02-15T10:54:23.853Z,24.83
2023-02-15T10:56:33.970Z,24.52
2023-02-15T10:58:59.927Z,26.05
2023-02-15T11:01:27.880Z,24.42
2023-02-15T11:03:47.816Z,24.25
2023-02-15T11:06:14.605Z,23.80
2023-02-15T11:08:16.635Z,22.95
2023-02-15T11:10:39.199Z,20.63
2023-02-15T11:12:44.249Z,20.52
2023-02-15T11:14:51.971Z,20.23
2023-02-15T11:17:05.868Z,21.42
2023-02-15T11:19:25.189Z,21.63
2023-02-15T11:21:48.130Z,21.52
2023-02-15T11:23:50.202Z,22.67
2023-02-15T11:25:59.901Z,20.52
2023-02-15T11:28:05.538Z,20.48
2023-02-15T11:30:15.641Z,19.10
2023-02-15T11:32:31.119Z,18.58
2023-02-15T11:34:37.421Z,19.17
2023-02-15T11:36:42.087Z,17.65
2023-02-15T11:38:45.762Z,16.83
2023-02-15T11:40:49.086Z,15.50
2023-02-15T11:42:54.858Z,16.50
2023-02-15T11:45:32.413Z,15.85
2023-02-15T11:47:34.090Z,15.17
2023-02-15T11:49:36.426Z,14.65
2023-02-15T11:51:38.019Z,13.95
2023-02-15T11:53:40.049Z,14.10
2023-02-15T11:55:47.244Z,15.38
2023-02-15T11:58:27.164Z,15.68
2023-02-15T12:00:44.216Z,15.60
2023-02-15T12:02:54.428Z,15.60
2023-02-15T12:05:02.198Z,16.92
2023-02-15T12:07:23.495Z,16.67
2023-02-15T12:09:41.780Z,16.15
2023-02-15T12:11:43.261Z,16.08
2023-02-15T12:14:12.713Z,16.88
2023-02-15T12:16:14.498Z,16.63
2023-02-15T12:18:40.446Z,17.20
2023-02-15T12:20:42.334Z,15.95
2023-02-15T12:22:51.637Z,17.45
2023-02-15T12:24:59.729Z,16.73
2023-02-15T12:27:19.656Z,17.30
2023-02-15T12:29:27.105Z,16.73
2023-02-15T12:31:44.825Z,17.92
2023-02-15T12:33:46.951Z,17.08
2023-02-15T12:35:50.842Z,17.08
2023-02-15T12:37:56.168Z,18.23
2023-02-15T12:40:00.044Z,17.83
2023-02-15T12:42:17.583Z,19.63
2023-02-15T12:44:27.674Z,17.90
2023-02-15T12:46:29.247Z,18.90
2023-02-15T12:48:30.710Z,19.05
2023-02-15T12:50:35.289Z,18.23
2023-02-15T12:52:36.858Z,19.27
2023-02-15T12:54:42.983Z,20.23
2023-02-15T12:56:44.502Z,19.30
2023-02-15T12:58:47.002Z,20.00
2023-02-15T13:00:48.834Z,19.63
2023-02-15T13:02:56.073Z,21.35
2023-02-15T13:05:05.912Z,20.15
2023-02-15T13:07:12.004Z,21.00
2023-02-15T13:09:21.003Z,21.90
2023-02-15T13:11:25.851Z,21.35
2023-02-15T13:13:33.021Z,20.80
2023-02-15T13:15:41.573Z,21.27
2023-02-15T13:17:44.933Z,20.95
2023-02-15T13:19:50.945Z,20.83
2023-02-15T13:21:54.249Z,20.67
2023-02-15T13:24:26.761Z,20.67
2023-02-15T13:26:32.245Z,20.65
2023-02-15T13:28:48.103Z,20.42
2023-02-15T13:30:50.278Z,21.45
2023-02-15T13:32:57.084Z,20.92
2023-02-15T13:35:00.535Z,20.77
2023-02-15T13:37:43.370Z,21.55
2023-02-15T13:39:52.485Z,21.45
2023-02-15T13:42:06.877Z,20.95
2023-02-15T13:44:35.601Z,20.75
2023-02-15T13:46:55.378Z,20.23
2023-02-15T13:48:59.696Z,18.90
2023-02-15T13:51:25.889Z,20.73
2023-02-15T13:53:57.072Z,20.23
2023-02-15T13:56:22.074Z,18.77
2023-02-15T13:58:45.542Z,19.90
2023-02-15T14:01:02.465Z,18.92
2023-02-15T14:03:28.318Z,20.00
2023-02-15T14:06:07.498Z,19.15
2023-02-15T14:08:27.693Z,19.48
2023-02-15T14:10:41.261Z,20.13
2023-02-15T14:12:57.924Z,18.70
2023-02-15T14:15:21.234Z,19.58
2023-02-15T14:17:59.847Z,18.40
2023-02-15T14:20:07.927Z,17.77
2023-02-15T14:22:35.447Z,17.38
2023-02-15T14:24:52.378Z,17.73
2023-02-15T14:27:13.768Z,17.77
2023-02-15T14:29:20.992Z,17.10
2023-02-15T14:31:31.611Z,17.27
2023-02-15T14:33:40.922Z,17.45
2023-02-15T14:35:43.848Z,17.50
2023-02-15T14:37:51.485Z,16.90
2023-02-15T14:40:21.162Z,17.42
2023-02-15T14:42:44.640Z,18.30
2023-02-15T14:44:58.104Z,17.73
2023-02-15T14:47:03.665Z,17.17
2023-02-15T14:49:26.615Z,16.60
2023-02-15T14:51:46.900Z,17.75
2023-02-15T14:53:48.459Z,16.90
2023-02-15T14:56:11.218Z,17.23
2023-02-15T14:58:14.544Z,16.88
2023-02-15T15:00:37.724Z,17.85
2023-02-15T15:02:53.375Z,16.73
2023-02-15T15:05:33.565Z,16.73
2023-02-15T15:07:48.597Z,17.50
2023-02-15T15:10:00.756Z,17.88
2023-02-15T15:12:14.456Z,17.35
2023-02-15T15:14:34.327Z,17.73
2023-02-15T15:16:38.909Z,17.65
2023-02-15T15:18:46.513Z,17.58
2023-02-15T15:20:51.628Z,18.73
2023-02-15T15:23:15.513Z,17.02
2023-02-15T15:25:38.765Z,16.42
2023-02-15T15:27:49.662Z,16.50
2023-02-15T15:29:51.138Z,17.55
2023-02-15T15:31:56.486Z,16.77
2023-02-15T15:34:22.727Z,17.20
2023-02-15T15:36:51.458Z,16.90
2023-02-15T15:39:16.702Z,16.10
2023-02-15T15:41:29.041Z,16.10
2023-02-15T15:43:51.490Z,16.45
2023-02-15T15:46:18.993Z,16.30
2023-02-15T15:48:31.646Z,16.45
2023-02-15T15:50:33.539Z,16.33
2023-02-15T15:52:39.598Z,17.02
2023-02-15T15:54:43.012Z,16.38
2023-02-15T15:56:52.011Z,16.92
2023-02-15T15:58:59.684Z,16.25
2023-02-15T16:01:28.104Z,16.23
2023-02-15T16:03:29.843Z,17.35
2023-02-15T16:05:41.079Z,16.30
2023-02-15T16:07:42.673Z,16.65
2023-02-15T16:09:59.638Z,16.90
2023-02-15T16:12:02.836Z,16.60
2023-02-15T16:14:04.345Z,17.45
2023-02-15T16:16:07.496Z,17.27
2023-02-15T16:18:16.132Z,16.35
2023-02-15T16:20:27.821Z,16.95
2023-02-15T16:22:30.017Z,16.88
2023-02-15T16:25:06.138Z,17.27
2023-02-15T16:27:33.966Z,16.67
2023-02-15T16:29:35.575Z,16.75
2023-02-15T16:31:37.242Z,17.25
2023-02-15T16:33:40.532Z,17.70
2023-02-15T16:35:57.263Z,16.83
2023-02-15T16:37:58.774Z,15.85
2023-02-15T16:40:00.962Z,16.63
2023-02-15T16:42:05.246Z,17.70
2023-02-15T16:44:15.840Z,17.30
2023-02-15T16:46:40.424Z,17.88
2023-02-15T16:48:46.028Z,16.80
2023-02-15T16:50:51.520Z,16.73
2023-02-15T16:52:53.335Z,17.08
2023-02-15T16:54:58.950Z,16.25
2023-02-15T16:57:00.788Z,16.73
2023-02-15T16:59:02.873Z,17.30
2023-02-15T17:01:08.867Z,17.45
2023-02-15T17:03:13.334Z,17.20
2023-02-15T17:05:20.863Z,17.17
2023-02-15T17:07:22.594Z,17.83
2023-02-15T17:09:26.319Z,18.17
2023-02-15T17:11:42.305Z,17.63
2023-02-15T17:14:07.671Z,17.80
2023-02-15T17:16:34.279Z,17.42
2023-02-15T17:18:38.489Z,17.90
2023-02-15T17:20:42.905Z,17.70
2023-02-15T17:22:44.382Z,18.02
2023-02-15T17:24:48.972Z,17.80
2023-02-15T17:27:00.695Z,17.77
2023-02-15T17:29:11.301Z,17.77
2023-02-15T17:31:17.274Z,17.67
2023-02-15T17:33:29.892Z,17.50
2023-02-15T17:35:33.709Z,17.40
2023-02-15T17:37:38.122Z,17.40
2023-02-15T17:39:41.361Z,18.48
2023-02-15T17:41:42.980Z,18.38
2023-02-15T17:43:44.399Z,17.77
2023-02-15T17:45:50.111Z,18.77
2023-02-15T17:47:51.882Z,18.25
2023-02-15T17:49:53.638Z,18.63
2023-02-15T17:51:55.173Z,18.70
2023-02-15T17:54:15.346Z,18.55
2023-02-15T17:56:16.764Z,19.15
2023-02-15T17:58:19.598Z,18.67
2023-02-15T18:00:40.039Z,19.75
2023-02-15T18:03:00.669Z,19.60
2023-02-15T18:05:20.518Z,19.77
2023-02-15T18:07:40.291Z,19.33
2023-02-15T18:10:00.812Z,19.60
2023-02-15T18:12:03.251Z,19.40
2023-02-15T18:14:07.215Z,19.35
2023-02-15T18:16:22.843Z,19.27
2023-02-15T18:18:24.440Z,19.48
2023-02-15T18:20:32.691Z,19.27
2023-02-15T18:22:34.221Z,21.85
2023-02-15T18:24:35.679Z,22.00
2023-02-15T18:26:37.166Z,23.73
2023-02-15T18:28:38.654Z,21.65
2023-02-15T18:30:45.071Z,20.60
2023-02-15T18:32:48.297Z,20.10
2023-02-15T18:34:49.793Z,20.83
2023-02-15T18:36:52.343Z,20.83
2023-02-15T18:38:57.890Z,21.27
2023-02-15T18:40:59.381Z,21.10
2023-02-15T18:43:00.909Z,21.75
2023-02-15T18:45:12.368Z,20.05
2023-02-15T18:47:13.841Z,21.30
2023-02-15T18:49:15.294Z,22.30
2023-02-15T18:51:21.638Z,20.35
2023-02-15T18:53:23.332Z,21.30
2023-02-15T18:55:27.964Z,21.13
2023-02-15T18:57:30.305Z,22.20
2023-02-15T18:59:32.497Z,19.90
2023-02-15T19:01:34.011Z,20.42
2023-02-15T19:03:35.491Z,20.52
2023-02-15T19:05:37.024Z,19.92
2023-02-15T19:07:39.294Z,20.25
2023-02-15T19:09:41.374Z,20.20
2023-02-15T19:11:48.155Z,19.08
2023-02-15T19:13:52.301Z,21.08
2023-02-15T19:15:53.768Z,20.13
2023-02-15T19:17:55.724Z,21.05
2023-02-15T19:19:57.182Z,20.20
2023-02-15T19:21:58.742Z,22.00
2023-02-15T19:24:05.336Z,20.42
2023-02-15T19:26:06.824Z,20.00
2023-02-15T19:28:33.178Z,20.52
2023-02-15T19:30:34.676Z,21.98
2023-02-15T19:32:36.208Z,22.05
2023-02-15T19:34:37.816Z,23.13
2023-02-15T19:36:39.611Z,21.02
2023-02-15T19:38:41.727Z,22.33
2023-02-15T19:40:43.552Z,20.45
2023-02-15T19:42:45.023Z,21.45
2023-02-15T19:44:46.489Z,21.95
2023-02-15T19:46:48.404Z,20.38
2023-02-15T19:48:51.078Z,23.17
2023-02-15T19:50:52.922Z,22.42
2023-02-15T19:52:54.504Z,22.30
2023-02-15T19:54:56.066Z,22.42
2023-02-15T19:56:57.800Z,22.77
2023-02-15T19:58:59.339Z,22.83
2023-02-15T20:01:02.258Z,24.15
2023-02-15T20:03:03.937Z,24.98
2023-02-15T20:05:05.833Z,24.95
2023-02-15T20:07:16.548Z,24.80
2023-02-15T20:09:25.357Z,24.02
2023-02-15T20:13:29.016Z,24.52
2023-02-15T20:15:33.643Z,25.20
2023-02-15T20:17:35.173Z,25.40
2023-02-15T20:19:39.000Z,25.13
2023-02-15T20:21:41.678Z,24.77
2023-02-15T20:23:43.169Z,22.90
2023-02-15T20:25:44.867Z,25.02
2023-02-15T20:27:47.255Z,23.48
2023-02-15T20:29:50.462Z,23.65
2023-02-15T20:31:55.206Z,23.52
2023-02-15T20:33:58.514Z,26.90
2023-02-15T20:36:00.078Z,24.83
2023-02-15T20:38:04.215Z,23.98
2023-02-15T20:40:17.874Z,24.42
2023-02-15T20:42:19.653Z,24.38
2023-02-15T20:44:31.073Z,22.55
2023-02-15T20:46:32.569Z,24.23
2023-02-15T20:48:34.100Z,23.30
2023-02-15T20:50:35.777Z,23.85
2023-02-15T20:52:37.304Z,24.35
2023-02-15T20:54:39.267Z,23.20
2023-02-15T20:56:40.834Z,23.60
2023-02-15T20:58:42.467Z,23.15
2023-02-15T21:00:43.961Z,22.42
2023-02-15T21:02:47.354Z,22.02
2023-02-15T21:04:49.164Z,22.45
2023-02-15T21:06:50.951Z,22.80
2023-02-15T21:08:52.424Z,23.48
2023-02-15T21:10:54.701Z,23.63
2023-02-15T21:12:58.550Z,26.55
2023-02-15T21:14:59.998Z,24.45
2023-02-15T21:17:01.477Z,23.98
2023-02-15T21:19:02.950Z,23.00
2023-02-15T21:21:06.419Z,23.02
2023-02-15T21:23:13.801Z,24.05
2023-02-15T21:25:20.239Z,22.65
2023-02-15T21:27:22.324Z,23.00
2023-02-15T21:29:26.839Z,23.58
2023-02-15T21:31:28.715Z,24.27
2023-02-15T21:33:30.298Z,23.40
2023-02-15T21:35:31.762Z,23.40
2023-02-15T21:37:36.376Z,23.98
2023-02-15T21:39:37.903Z,24.20
2023-02-15T21:42:04.421Z,24.10
2023-02-15T21:44:39.468Z,24.25
2023-02-15T21:46:59.426Z,22.67
2023-02-15T21:49:04.729Z,23.92
2023-02-15T21:51:24.708Z,24.38
2023-02-15T21:53:34.635Z,23.35
2023-02-15T21:55:36.121Z,24.70
2023-02-15T21:57:37.558Z,25.88
2023-02-15T21:59:39.002Z,22.58
2023-02-15T22:01:42.862Z,24.40
2023-02-15T22:03:44.338Z,24.75
2023-02-15T22:05:45.820Z,26.13
2023-02-15T22:07:47.799Z,23.80
2023-02-15T22:09:49.389Z,23.98
2023-02-15T22:11:52.841Z,24.13
2023-02-15T22:13:54.363Z,25.17
2023-02-15T22:15:56.774Z,23.50
2023-02-15T22:17:58.223Z,24.45
2023-02-15T22:20:00.011Z,24.52
2023-02-15T22:22:01.494Z,23.45
2023-02-15T22:24:03.049Z,24.25
2023-02-15T22:26:14.378Z,24.25
2023-02-15T22:28:16.852Z,22.52
2023-02-15T22:30:32.847Z,23.88
2023-02-15T22:32:34.443Z,23.10
2023-02-15T22:34:36.091Z,25.45
2023-02-15T22:36:38.876Z,24.58
2023-02-15T22:38:40.323Z,24.50
2023-02-15T22:40:41.875Z,23.23
2023-02-15T22:42:47.322Z,23.77
2023-02-15T22:44:48.869Z,24.83
2023-02-15T22:46:51.204Z,24.50
2023-02-15T22:48:52.961Z,26.27
2023-02-15T22:50:54.971Z,24.70
2023-02-15T22:52:56.772Z,25.95
2023-02-15T22:54:58.222Z,25.63
2023-02-15T22:57:00.801Z,25.55
2023-02-15T22:59:05.946Z,25.17
2023-02-15T23:01:21.766Z,24.90
2023-02-15T23:03:28.830Z,24.38
2023-02-15T23:05:31.252Z,25.52
2023-02-15T23:07:32.834Z,25.77
2023-02-15T23:09:34.291Z,25.55
2023-02-15T23:11:35.846Z,26.27
2023-02-15T23:13:38.108Z,26.95
2023-02-15T23:15:41.663Z,26.00
2023-02-15T23:17:43.124Z,26.88
2023-02-15T23:19:44.719Z,26.95
2023-02-15T23:21:46.478Z,27.67
2023-02-15T23:23:54.320Z,26.42
2023-02-15T23:25:56.180Z,27.73
2023-02-15T23:27:57.651Z,25.85
2023-02-15T23:29:59.128Z,28.08
2023-02-15T23:32:00.770Z,26.60
2023-02-15T23:34:13.793Z,25.50
2023-02-15T23:36:24.517Z,27.08
2023-02-15T23:38:30.894Z,26.85
2023-02-15T23:40:50.739Z,25.20
2023-02-15T23:42:52.221Z,25.17
2023-02-15T23:44:53.685Z,24.35
2023-02-15T23:46:56.558Z,24.08
2023-02-15T23:48:58.078Z,24.10
2023-02-15T23:50:59.887Z,26.25
2023-02-15T23:53:01.357Z,25.50
2023-02-15T23:55:02.815Z,26.88
2023-02-15T23:57:04.583Z,25.25
2023-02-15T23:59:06.658Z,26.63
